createdAt,value
2022-09-10T00:02:15.939Z,16.50
2022-09-10T00:04:43.053Z,16.50
2022-09-10T00:07:10.032Z,16.50
2022-09-10T00:09:37.579Z,16.50
2022-09-10T00:12:04.775Z,16.50
2022-09-10T00:14:31.745Z,16.50
2022-09-10T00:16:58.679Z,16.50
2022-09-10T00:19:25.679Z,16.40
2022-09-10T00:21:52.694Z,16.40
2022-09-10T00:24:19.727Z,16.40
2022-09-10T00:26:46.617Z,16.30
2022-09-10T00:29:16.063Z,16.30
2022-09-10T00:31:43.697Z,16.30
2022-09-10T00:34:12.807Z,16.30
2022-09-10T00:36:42.021Z,16.20
2022-09-10T00:39:14.533Z,16.20
2022-09-10T00:41:43.721Z,16.20
2022-09-10T00:44:41.588Z,16.20
2022-09-10T00:47:23.953Z,16.20
2022-09-10T00:50:25.808Z,16.20
2022-09-10T00:52:56.978Z,16.20
2022-09-10T00:55:24.821Z,16.20
2022-09-10T00:57:57.614Z,16.20
2022-09-10T01:00:25.028Z,16.20
2022-09-10T01:02:52.273Z,16.20
2022-09-10T01:05:20.155Z,16.20
2022-09-10T01:07:48.379Z,16.30
2022-09-10T01:10:18.635Z,16.20
2022-09-10T01:13:03.706Z,16.20
2022-09-10T01:15:46.175Z,16.20
2022-09-10T01:18:26.119Z,16.20
2022-09-10T01:20:58.992Z,16.20
2022-09-10T01:24:12.707Z,16.20
2022-09-10T01:27:02.412Z,16.20
2022-09-10T01:29:47.574Z,16.10
2022-09-10T01:32:20.687Z,16.10
2022-09-10T01:34:59.140Z,16.10
2022-09-10T01:37:31.017Z,16.10
2022-09-10T01:40:00.011Z,16.10
2022-09-10T01:42:28.416Z,16.10
2022-09-10T01:44:57.981Z,16.10
2022-09-10T01:47:51.209Z,16.10
2022-09-10T01:50:39.589Z,16.20
2022-09-10T01:53:18.771Z,16.20
2022-09-10T01:55:55.537Z,16.10
2022-09-10T01:58:41.957Z,16.00
2022-09-10T02:01:32.857Z,16.00
2022-09-10T02:04:06.086Z,15.90
2022-09-10T02:06:38.676Z,15.80
2022-09-10T02:09:07.529Z,15.80
2022-09-10T02:11:52.067Z,15.70
2022-09-10T02:14:21.785Z,15.70
2022-09-10T02:16:55.143Z,15.70
2022-09-10T02:19:22.105Z,15.60
2022-09-10T02:21:49.488Z,15.60
2022-09-10T02:24:16.705Z,15.60
2022-09-10T02:26:44.886Z,15.60
2022-09-10T02:29:15.457Z,15.60
2022-09-10T02:31:44.260Z,15.60
2022-09-10T02:34:11.521Z,15.60
2022-09-10T02:36:38.484Z,15.60
2022-09-10T02:39:06.043Z,15.50
2022-09-10T02:41:38.172Z,15.50
2022-09-10T02:44:05.221Z,15.50
2022-09-10T02:46:32.231Z,15.50
2022-09-10T02:48:59.260Z,15.40
2022-09-10T02:51:27.275Z,15.40
2022-09-10T02:53:56.028Z,15.40
2022-09-10T02:56:24.066Z,15.40
2022-09-10T02:58:51.196Z,15.40
2022-09-10T03:01:20.536Z,15.40
2022-09-10T03:03:55.723Z,15.40
2022-09-10T03:06:24.621Z,15.40
2022-09-10T03:08:52.026Z,15.40
2022-09-10T03:11:22.471Z,15.40
2022-09-10T03:13:50.331Z,15.30
2022-09-10T03:16:20.421Z,15.40
2022-09-10T03:18:47.746Z,15.40
2022-09-10T03:21:20.322Z,15.40
2022-09-10T03:23:49.614Z,15.50
2022-09-10T03:26:19.024Z,15.50
2022-09-10T03:28:46.752Z,15.50
2022-09-10T03:31:14.590Z,15.40
2022-09-10T03:33:42.141Z,15.40
2022-09-10T03:36:11.013Z,15.40
2022-09-10T03:38:38.776Z,15.40
2022-09-10T03:41:05.944Z,15.40
2022-09-10T03:43:32.981Z,15.50
2022-09-10T03:45:59.932Z,15.50
2022-09-10T03:48:26.917Z,15.50
2022-09-10T03:50:54.920Z,15.50
2022-09-10T03:53:21.968Z,15.50
2022-09-10T03:55:50.930Z,15.50
2022-09-10T03:58:18.685Z,15.50
2022-09-10T04:00:46.747Z,15.50
2022-09-10T04:03:14.667Z,15.50
2022-09-10T04:05:45.989Z,15.50
2022-09-10T04:08:14.126Z,15.50
2022-09-10T04:10:42.623Z,15.50
2022-09-10T04:13:10.092Z,15.50
2022-09-10T04:15:37.659Z,15.50
2022-09-10T04:18:06.416Z,15.50
2022-09-10T04:20:34.675Z,15.50
2022-09-10T04:23:03.242Z,15.50
2022-09-10T04:25:30.096Z,15.50
2022-09-10T04:27:57.093Z,15.60
2022-09-10T04:30:24.079Z,15.60
2022-09-10T04:32:52.727Z,15.60
2022-09-10T04:35:20.581Z,15.60
2022-09-10T04:37:48.070Z,15.60
2022-09-10T04:40:15.102Z,15.70
2022-09-10T04:42:42.061Z,15.60
2022-09-10T04:45:10.014Z,15.70
2022-09-10T04:47:37.119Z,15.60
2022-09-10T04:50:06.277Z,15.60
2022-09-10T04:52:34.297Z,15.60
2022-09-10T04:55:01.533Z,15.60
2022-09-10T04:57:29.019Z,15.60
2022-09-10T04:59:55.942Z,15.60
2022-09-10T05:02:22.985Z,15.50
2022-09-10T05:04:50.810Z,15.40
2022-09-10T05:07:17.995Z,15.40
2022-09-10T05:09:44.945Z,15.40
2022-09-10T05:12:11.889Z,15.30
2022-09-10T05:14:38.849Z,15.30
2022-09-10T05:17:06.103Z,15.30
2022-09-10T05:19:33.054Z,15.20
2022-09-10T05:22:00.023Z,15.20
2022-09-10T05:24:27.505Z,15.20
2022-09-10T05:26:54.518Z,15.20
2022-09-10T05:29:22.136Z,15.20
2022-09-10T05:31:49.216Z,15.20
2022-09-10T05:34:16.324Z,15.20
2022-09-10T05:36:43.298Z,15.30
2022-09-10T05:39:10.259Z,15.30
2022-09-10T05:41:37.953Z,15.30
2022-09-10T05:44:05.649Z,15.40
2022-09-10T05:46:33.364Z,15.50
2022-09-10T05:49:00.469Z,15.50
2022-09-10T05:51:31.154Z,15.60
2022-09-10T05:53:58.179Z,15.60
2022-09-10T05:56:28.310Z,15.60
2022-09-10T05:58:55.215Z,15.70
2022-09-10T06:01:22.311Z,15.70
2022-09-10T06:03:51.041Z,15.70
2022-09-10T06:06:19.673Z,15.70
2022-09-10T06:08:51.886Z,15.80
2022-09-10T06:11:18.882Z,15.80
2022-09-10T06:13:46.163Z,15.90
2022-09-10T06:16:13.858Z,15.90
2022-09-10T06:18:41.375Z,16.00
2022-09-10T06:21:13.774Z,16.00
2022-09-10T06:23:41.032Z,16.10
2022-09-10T06:26:15.154Z,16.10
2022-09-10T06:28:42.090Z,16.20
2022-09-10T06:31:14.365Z,16.20
2022-09-10T06:33:41.469Z,16.30
2022-09-10T06:36:11.362Z,16.40
2022-09-10T06:38:38.339Z,16.50
2022-09-10T06:41:07.810Z,16.60
2022-09-10T06:43:38.604Z,16.70
2022-09-10T06:46:50.778Z,16.80
2022-09-10T06:49:03.831Z,16.90
2022-09-10T06:51:31.406Z,16.90
2022-09-10T06:53:58.657Z,17.00
2022-09-10T06:56:25.619Z,17.00
2022-09-10T06:58:52.568Z,17.20
2022-09-10T07:01:21.896Z,17.30
2022-09-10T07:03:53.617Z,17.50
2022-09-10T07:06:20.490Z,17.70
2022-09-10T07:08:47.417Z,17.90
2022-09-10T07:11:16.162Z,18.20
2022-09-10T07:13:43.328Z,18.40
2022-09-10T07:16:10.347Z,18.60
2022-09-10T07:18:37.352Z,18.70
2022-09-10T07:21:10.128Z,18.90
2022-09-10T07:23:39.159Z,19.10
2022-09-10T07:26:08.239Z,19.20
2022-09-10T07:28:36.501Z,19.40
2022-09-10T07:31:15.964Z,19.50
2022-09-10T07:33:43.405Z,19.60
2022-09-10T07:36:12.705Z,19.70
2022-09-10T07:38:41.029Z,19.90
2022-09-10T07:41:11.566Z,19.90
2022-09-10T07:43:42.195Z,20.00
2022-09-10T07:46:12.880Z,20.20
2022-09-10T07:48:41.654Z,20.30
2022-09-10T07:51:10.907Z,20.30
2022-09-10T07:53:42.148Z,20.40
2022-09-10T07:56:17.072Z,20.40
2022-09-10T07:58:45.007Z,20.40
2022-09-10T08:01:13.080Z,20.30
2022-09-10T08:03:41.185Z,20.10
2022-09-10T08:06:09.493Z,20.00
2022-09-10T08:08:39.046Z,19.90
2022-09-10T08:11:14.181Z,19.90
2022-09-10T08:13:42.651Z,19.90
2022-09-10T08:16:12.431Z,20.00
2022-09-10T08:18:40.018Z,20.10
2022-09-10T08:21:09.014Z,20.30
2022-09-10T08:23:37.007Z,20.40
2022-09-10T08:26:05.678Z,20.60
2022-09-10T08:28:33.036Z,20.70
2022-09-10T08:31:07.824Z,20.70
2022-09-10T08:33:36.806Z,20.70
2022-09-10T08:36:06.083Z,20.70
2022-09-10T08:38:40.079Z,20.80
2022-09-10T08:41:19.400Z,20.90
2022-09-10T08:43:55.350Z,21.00
2022-09-10T08:46:29.707Z,21.00
2022-09-10T08:49:14.620Z,21.10
2022-09-10T08:51:56.685Z,21.20
2022-09-10T08:54:39.147Z,21.30
2022-09-10T08:57:12.151Z,21.30
2022-09-10T08:59:44.679Z,21.00
2022-09-10T09:02:38.121Z,20.80
2022-09-10T09:05:28.346Z,20.90
2022-09-10T09:07:58.690Z,21.00
2022-09-10T09:10:25.820Z,21.20
2022-09-10T09:13:21.599Z,21.40
2022-09-10T09:16:22.607Z,21.50
2022-09-10T09:19:06.497Z,21.60
2022-09-10T09:21:53.402Z,21.70
2022-09-10T09:24:29.012Z,21.80
2022-09-10T09:27:10.273Z,21.90
2022-09-10T09:29:56.788Z,21.80
2022-09-10T09:32:24.920Z,21.80
2022-09-10T09:34:56.903Z,21.90
2022-09-10T09:37:30.247Z,21.90
2022-09-10T09:40:18.787Z,22.00
2022-09-10T09:42:58.878Z,22.10
2022-09-10T09:45:35.599Z,22.20
2022-09-10T09:48:04.785Z,22.20
2022-09-10T09:50:34.244Z,22.20
2022-09-10T09:53:01.202Z,22.20
2022-09-10T09:55:55.856Z,22.20
2022-09-10T09:58:22.791Z,22.30
2022-09-10T10:01:04.913Z,22.40
2022-09-10T10:03:52.413Z,22.50
2022-09-10T10:06:29.909Z,22.50
2022-09-10T10:09:22.778Z,22.50
2022-09-10T10:12:06.686Z,22.60
2022-09-10T10:14:42.607Z,22.80
2022-09-10T10:17:32.570Z,22.70
2022-09-10T10:20:05.690Z,22.60
2022-09-10T10:22:32.739Z,22.60
2022-09-10T10:25:02.187Z,22.60
2022-09-10T10:27:35.547Z,22.70
2022-09-10T10:30:18.331Z,23.00
2022-09-10T10:32:56.323Z,23.00
2022-09-10T10:35:35.252Z,23.00
2022-09-10T10:38:32.987Z,22.90
2022-09-10T10:41:41.671Z,22.70
2022-09-10T10:44:25.684Z,22.40
2022-09-10T10:47:04.928Z,22.10
2022-09-10T10:49:57.370Z,21.90
2022-09-10T10:52:36.368Z,21.50
2022-09-10T10:55:12.346Z,21.40
2022-09-10T10:57:43.550Z,21.40
2022-09-10T11:00:15.046Z,21.50
2022-09-10T11:02:50.667Z,21.60
2022-09-10T11:05:38.912Z,21.70
2022-09-10T11:08:21.787Z,21.80
2022-09-10T11:11:00.727Z,21.90
2022-09-10T11:13:46.267Z,21.60
2022-09-10T11:16:40.452Z,21.40
2022-09-10T11:19:16.467Z,21.20
2022-09-10T11:21:58.928Z,20.90
2022-09-10T11:24:34.422Z,20.50
2022-09-10T11:27:17.039Z,20.10
2022-09-10T11:30:00.640Z,19.70
2022-09-10T11:32:32.594Z,19.40
2022-09-10T11:35:10.115Z,19.30
2022-09-10T11:38:03.982Z,19.30
2022-09-10T11:40:46.601Z,19.30
2022-09-10T11:43:27.231Z,19.40
2022-09-10T11:45:59.140Z,19.70
2022-09-10T11:48:41.905Z,19.90
2022-09-10T11:51:19.511Z,20.10
2022-09-10T11:53:46.749Z,20.40
2022-09-10T11:56:19.869Z,20.50
2022-09-10T11:59:05.256Z,20.60
2022-09-10T12:01:55.122Z,20.80
2022-09-10T12:04:55.354Z,21.10
2022-09-10T12:07:42.527Z,21.60
2022-09-10T12:10:23.245Z,22.10
2022-09-10T12:12:51.341Z,22.30
2022-09-10T12:15:18.183Z,22.40
2022-09-10T12:17:52.836Z,22.30
2022-09-10T12:20:28.329Z,22.20
2022-09-10T12:22:56.632Z,22.10
2022-09-10T12:25:33.592Z,22.00
2022-09-10T12:28:08.231Z,21.90
2022-09-10T12:30:38.430Z,21.90
2022-09-10T12:33:17.528Z,22.00
2022-09-10T12:35:47.563Z,22.10
2022-09-10T12:38:48.644Z,22.30
2022-09-10T12:41:24.563Z,22.60
2022-09-10T12:43:57.380Z,22.70
2022-09-10T12:46:25.826Z,22.80
2022-09-10T12:48:56.332Z,22.70
2022-09-10T12:51:48.143Z,22.80
2022-09-10T12:54:34.442Z,22.60
2022-09-10T12:57:20.519Z,22.50
2022-09-10T13:00:12.109Z,22.30
2022-09-10T13:03:06.193Z,22.10
2022-09-10T13:05:45.654Z,21.90
2022-09-10T13:08:20.674Z,21.60
2022-09-10T13:11:14.683Z,21.10
2022-09-10T13:13:59.372Z,20.50
2022-09-10T13:16:26.654Z,19.90
2022-09-10T13:19:14.221Z,19.70
2022-09-10T13:21:41.161Z,19.70
2022-09-10T13:24:34.736Z,19.90
2022-09-10T13:27:22.864Z,20.20
2022-09-10T13:30:22.053Z,20.40
2022-09-10T13:33:04.530Z,20.50
2022-09-10T13:36:08.934Z,20.20
2022-09-10T13:38:44.686Z,19.80
2022-09-10T13:41:27.317Z,19.40
2022-09-10T13:44:34.511Z,19.00
2022-09-10T13:47:38.111Z,18.60
2022-09-10T13:50:15.774Z,18.40
2022-09-10T13:52:45.775Z,18.40
2022-09-10T13:55:26.107Z,18.40
2022-09-10T13:57:58.206Z,18.60
2022-09-10T14:00:30.286Z,18.80
2022-09-10T14:03:00.341Z,19.00
2022-09-10T14:05:47.063Z,19.20
2022-09-10T14:08:38.603Z,19.30
2022-09-10T14:11:19.780Z,19.40
2022-09-10T14:13:54.429Z,19.50
2022-09-10T14:16:30.361Z,19.40
2022-09-10T14:19:01.975Z,19.40
2022-09-10T14:21:29.617Z,19.30
2022-09-10T14:23:59.127Z,19.40
2022-09-10T14:26:33.964Z,19.80
2022-09-10T14:29:23.220Z,20.40
2022-09-10T14:31:50.390Z,20.80
2022-09-10T14:34:32.385Z,21.20
2022-09-10T14:37:28.203Z,21.30
2022-09-10T14:39:56.757Z,21.20
2022-09-10T14:42:35.744Z,21.40
2022-09-10T14:45:03.576Z,21.80
2022-09-10T14:47:37.448Z,21.80
2022-09-10T14:50:28.417Z,22.00
2022-09-10T14:52:55.846Z,22.00
2022-09-10T14:55:24.212Z,21.90
2022-09-10T14:57:55.878Z,21.80
2022-09-10T15:00:24.301Z,21.60
2022-09-10T15:02:56.181Z,21.30
2022-09-10T15:05:23.314Z,21.20
2022-09-10T15:07:50.428Z,21.10
2022-09-10T15:10:17.609Z,21.10
2022-09-10T15:12:49.989Z,21.40
2022-09-10T15:15:18.333Z,21.50
2022-09-10T15:17:45.384Z,21.70
2022-09-10T15:20:17.195Z,21.80
2022-09-10T15:22:44.974Z,21.60
2022-09-10T15:25:29.657Z,21.50
2022-09-10T15:27:57.128Z,21.50
2022-09-10T15:30:24.951Z,21.30
2022-09-10T15:32:54.462Z,21.20
2022-09-10T15:35:23.701Z,21.00
2022-09-10T15:37:51.411Z,20.90
2022-09-10T15:40:18.434Z,20.90
2022-09-10T15:42:45.384Z,20.80
2022-09-10T15:45:14.781Z,20.70
2022-09-10T15:47:42.597Z,20.60
2022-09-10T15:50:12.027Z,20.50
2022-09-10T15:52:39.894Z,20.50
2022-09-10T15:55:07.254Z,20.40
2022-09-10T15:57:36.036Z,20.30
2022-09-10T16:00:05.224Z,20.20
2022-09-10T16:02:32.678Z,20.10
2022-09-10T16:05:02.506Z,20.00
2022-09-10T16:07:29.662Z,19.90
2022-09-10T16:09:58.945Z,19.80
2022-09-10T16:12:28.985Z,19.70
2022-09-10T16:14:56.119Z,19.60
2022-09-10T16:17:23.196Z,19.60
2022-09-10T16:19:51.643Z,19.50
2022-09-10T16:22:20.641Z,19.40
2022-09-10T16:24:47.992Z,19.30
2022-09-10T16:27:16.422Z,19.20
2022-09-10T16:29:43.773Z,19.20
2022-09-10T16:32:11.468Z,19.10
2022-09-10T16:34:39.031Z,19.10
2022-09-10T16:37:06.300Z,19.00
2022-09-10T16:39:33.420Z,19.00
2022-09-10T16:42:00.438Z,19.00
2022-09-10T16:44:28.637Z,19.00
2022-09-10T16:46:57.834Z,18.90
2022-09-10T16:49:24.818Z,18.90
2022-09-10T16:51:52.062Z,18.90
2022-09-10T16:54:21.067Z,18.80
2022-09-10T16:56:49.314Z,18.80
2022-09-10T16:59:25.989Z,18.80
2022-09-10T17:01:53.966Z,18.70
2022-09-10T17:04:28.195Z,18.60
2022-09-10T17:06:59.072Z,18.60
2022-09-10T17:09:26.105Z,18.50
2022-09-10T17:11:54.220Z,18.40
2022-09-10T17:14:21.153Z,18.40
2022-09-10T17:16:48.831Z,18.30
2022-09-10T17:19:26.642Z,18.20
2022-09-10T17:21:55.845Z,18.20
2022-09-10T17:24:27.547Z,18.00
2022-09-10T17:26:55.466Z,17.90
2022-09-10T17:29:24.873Z,17.90
2022-09-10T17:31:52.631Z,17.80
2022-09-10T17:34:21.730Z,17.60
2022-09-10T17:36:49.448Z,17.60
2022-09-10T17:39:17.073Z,17.40
2022-09-10T17:41:44.472Z,17.40
2022-09-10T17:44:13.650Z,17.30
2022-09-10T17:46:42.897Z,17.20
2022-09-10T17:49:13.677Z,17.10
2022-09-10T17:51:41.599Z,17.00
2022-09-10T17:54:08.699Z,16.90
2022-09-10T17:56:37.997Z,16.90
2022-09-10T17:59:06.023Z,16.80
2022-09-10T18:01:37.890Z,16.70
2022-09-10T18:04:08.954Z,16.60
2022-09-10T18:06:36.971Z,16.60
2022-09-10T18:09:05.365Z,16.50
2022-09-10T18:11:34.781Z,16.50
2022-09-10T18:14:02.403Z,16.40
2022-09-10T18:16:33.093Z,16.40
2022-09-10T18:19:13.547Z,16.30
2022-09-10T18:21:42.874Z,16.40
2022-09-10T18:24:25.410Z,16.30
2022-09-10T18:26:55.182Z,16.30
2022-09-10T18:29:28.430Z,16.20
2022-09-10T18:31:58.365Z,16.20
2022-09-10T18:34:29.644Z,16.10
2022-09-10T18:37:00.618Z,16.10
2022-09-10T18:39:30.318Z,16.00
2022-09-10T18:41:59.304Z,16.00
2022-09-10T18:44:29.716Z,16.00
2022-09-10T18:46:57.276Z,16.00
2022-09-10T18:49:26.303Z,16.00
2022-09-10T18:51:55.045Z,15.90
2022-09-10T18:54:23.690Z,16.00
2022-09-10T18:56:51.713Z,16.00
2022-09-10T18:59:21.484Z,16.00
2022-09-10T19:01:50.476Z,15.90
2022-09-10T19:04:22.334Z,16.00
2022-09-10T19:06:50.128Z,15.90
2022-09-10T19:09:24.272Z,15.90
2022-09-10T19:11:55.518Z,15.90
2022-09-10T19:14:33.084Z,15.90
2022-09-10T19:17:01.441Z,15.90
2022-09-10T19:19:34.197Z,15.90
2022-09-10T19:22:04.265Z,16.00
2022-09-10T19:24:53.593Z,16.00
2022-09-10T19:27:20.423Z,16.00
2022-09-10T19:29:50.112Z,15.90
2022-09-10T19:32:17.936Z,16.00
2022-09-10T19:34:45.361Z,16.00
2022-09-10T19:37:13.473Z,16.00
2022-09-10T19:39:40.803Z,16.00
2022-09-10T19:42:08.516Z,16.00
2022-09-10T19:44:35.724Z,16.10
2022-09-10T19:47:04.228Z,16.10
2022-09-10T19:49:31.854Z,16.10
2022-09-10T19:51:58.923Z,16.10
2022-09-10T19:54:28.664Z,16.10
2022-09-10T19:56:56.875Z,16.10
2022-09-10T19:59:24.184Z,16.10
2022-09-10T20:01:51.480Z,16.10
2022-09-10T20:04:18.819Z,16.10
2022-09-10T20:06:48.263Z,16.10
2022-09-10T20:09:15.381Z,16.20
2022-09-10T20:11:42.444Z,16.10
2022-09-10T20:14:13.597Z,16.10
2022-09-10T20:16:44.042Z,16.10
2022-09-10T20:19:14.336Z,16.20
2022-09-10T20:21:42.488Z,16.20
2022-09-10T20:24:10.505Z,16.20
2022-09-10T20:26:40.377Z,16.20
2022-09-10T20:29:11.409Z,16.20
2022-09-10T20:31:41.306Z,16.20
2022-09-10T20:34:12.182Z,16.20
2022-09-10T20:36:40.816Z,16.20
2022-09-10T20:39:08.483Z,16.20
2022-09-10T20:41:35.442Z,16.20
2022-09-10T20:44:02.466Z,16.20
2022-09-10T20:46:31.327Z,16.20
2022-09-10T20:49:05.803Z,16.20
2022-09-10T20:51:35.979Z,16.20
2022-09-10T20:54:04.150Z,16.20
2022-09-10T20:56:31.223Z,16.20
2022-09-10T20:58:58.742Z,16.20
2022-09-10T21:01:28.202Z,16.20
2022-09-10T21:03:59.423Z,16.20
2022-09-10T21:06:29.418Z,16.20
2022-09-10T21:08:57.194Z,16.20
2022-09-10T21:11:27.066Z,16.20
2022-09-10T21:13:56.148Z,16.20
2022-09-10T21:16:28.493Z,16.20
2022-09-10T21:18:58.035Z,16.20
2022-09-10T21:21:27.998Z,16.10
2022-09-10T21:24:00.722Z,16.20
2022-09-10T21:26:29.851Z,16.20
2022-09-10T21:28:58.812Z,16.20
2022-09-10T21:31:27.511Z,16.20
2022-09-10T21:34:01.874Z,16.20
2022-09-10T21:36:30.823Z,16.20
2022-09-10T21:39:00.227Z,16.20
2022-09-10T21:41:31.384Z,16.20
2022-09-10T21:44:00.053Z,16.30
2022-09-10T21:46:28.062Z,16.30
2022-09-10T21:48:55.643Z,16.30
2022-09-10T21:51:23.162Z,16.30
2022-09-10T21:53:55.056Z,16.30
2022-09-10T21:56:24.051Z,16.40
2022-09-10T21:58:51.019Z,16.40
2022-09-10T22:01:23.798Z,16.40
2022-09-10T22:03:53.771Z,16.40
2022-09-10T22:06:23.346Z,16.40
2022-09-10T22:08:55.237Z,16.40
2022-09-10T22:11:24.997Z,16.40
2022-09-10T22:13:54.877Z,16.40
2022-09-10T22:16:25.316Z,16.40
2022-09-10T22:18:53.949Z,16.40
2022-09-10T22:21:20.931Z,16.40
2022-09-10T22:23:51.038Z,16.40
2022-09-10T22:26:21.114Z,16.40
2022-09-10T22:28:54.437Z,16.40
2022-09-10T22:31:24.205Z,16.40
2022-09-10T22:33:59.746Z,16.40
2022-09-10T22:36:31.710Z,16.40
2022-09-10T22:39:14.289Z,16.40
2022-09-10T22:41:42.285Z,16.40
2022-09-10T22:44:09.948Z,16.40
2022-09-10T22:46:37.952Z,16.40
2022-09-10T22:49:05.598Z,16.40
2022-09-10T22:51:36.229Z,16.40
2022-09-10T22:54:05.069Z,16.40
2022-09-10T22:56:32.612Z,16.40
2022-09-10T22:59:00.436Z,16.40
2022-09-10T23:01:36.781Z,16.40
2022-09-10T23:04:06.284Z,16.40
2022-09-10T23:06:35.488Z,16.30
2022-09-10T23:09:07.062Z,16.30
2022-09-10T23:11:37.130Z,16.30
2022-09-10T23:14:11.517Z,16.30
2022-09-10T23:16:41.781Z,16.30
2022-09-10T23:19:13.161Z,16.30
2022-09-10T23:21:43.161Z,16.30
2022-09-10T23:24:13.977Z,16.30
2022-09-10T23:26:42.100Z,16.30
2022-09-10T23:29:09.799Z,16.30
2022-09-10T23:31:38.729Z,16.30
2022-09-10T23:34:09.979Z,16.30
2022-09-10T23:36:39.934Z,16.20
2022-09-10T23:39:16.145Z,16.20
2022-09-10T23:41:43.984Z,16.20
2022-09-10T23:44:10.887Z,16.20
2022-09-10T23:46:38.444Z,16.10
2022-09-10T23:49:07.073Z,16.10
2022-09-10T23:51:34.479Z,16.10
2022-09-10T23:54:02.808Z,16.10
2022-09-10T23:56:29.823Z,16.10
2022-09-10T23:58:59.707Z,16.10
